Data for 12/13/2006

Time Sea-Level Adjusted Pressure Absolute Pressure Temperature Relative Humidity Dew Point   
(mb) (inHg) (mb) (inHg) (C) (F) (%) (C) (F)
00:05 1017 30.03 846 24.98 4.6 40.2 50 -5 22.9
00:10 1017 30.03 846 24.98 4.5 40.1 51 -4.8 23.3
00:15 1017 30.03 846 24.98 4.4 39.9 50 -5 23
00:20 1017 30.03 846 24.98 4.4 39.9 51 -5 23.1
00:25 1017 30.03 846 24.98 4.4 39.9 50 -5.1 22.8
00:30 1017 30.03 846 24.98 4.3 39.7 51 -5 23
00:35 1017 30.03 846 24.98 4.2 39.5 51 -5.1 22.8
00:40 1017 30.03 846 24.98 4.1 39.5 51 -5.2 22.7
00:45 1016 30 846 24.98 4.1 39.4 51 -5.2 22.6
00:50 1016 30 845 24.95 4.1 39.3 51 -5.1 22.8
00:55 1016 30 845 24.95 4.1 39.4 51 -5.2 22.6
01:00 1016 30 845 24.95 4 39.2 52 -5 23
01:05 1016 30 845 24.95 3.8 38.9 52 -5.1 22.9
01:10 1016 30 845 24.95 3.8 38.9 52 -5.2 22.7
01:15 1016 30 845 24.95 4 39.2 52 -5.1 22.8
01:20 1016 30 845 24.95 3.9 39.1 53 -4.9 23.2
01:25 1016 30 845 24.95 3.9 39 54 -4.7 23.5
01:30 1016 30 845 24.95 3.7 38.7 55 -4.6 23.7
01:35 1016 30 845 24.95 3.6 38.5 54 -4.7 23.5
01:40 1016 30 845 24.95 3.7 38.6 54 -4.8 23.4
01:45 1016 30 845 24.95 3.7 38.7 54 -4.7 23.6
01:50 1016 30 845 24.95 3.7 38.7 55 -4.6 23.8
01:55 1016 30 845 24.95 3.3 38 57 -4.5 23.9
02:00 1016 30 845 24.95 2.6 36.7 58 -4.9 23.1
02:05 1016 30 845 24.95 2.1 35.8 58 -5.2 22.6
02:10 1016 30 845 24.95 2.2 36 58 -5.3 22.4
02:15 1016 30 845 24.95 2.4 36.3 59 -4.8 23.3
02:20 1016 30 845 24.95 2.6 36.6 57 -5 22.9
02:25 1016 30 845 24.95 2.8 37.1 56 -5.2 22.7
02:30 1016 30 845 24.95 3.3 37.9 51 -5.8 21.5
02:35 1016 30 845 24.95 3.9 39 49 -5.9 21.4
02:40 1015 29.97 845 24.95 4.2 39.5 48 -5.8 21.5
02:45 1015 29.97 844 24.92 4.2 39.5 49 -5.7 21.7
02:50 1015 29.97 845 24.95 3.7 38.6 51 -5.4 22.2
02:55 1015 29.97 845 24.95 3.5 38.3 50 -6 21.2
03:00 1015 29.97 845 24.95 3.8 38.8 49 -5.9 21.3
03:05 1015 29.97 844 24.92 3.8 38.8 50 -5.7 21.7
03:10 1015 29.97 844 24.92 4 39.2 50 -5.6 22
03:15 1015 29.97 844 24.92 3.8 38.8 51 -5.5 22.1
03:20 1015 29.97 844 24.92 3.6 38.5 50 -5.8 21.5
03:25 1015 29.97 844 24.92 4.1 39.3 49 -5.8 21.5
03:30 1015 29.97 844 24.92 4.4 39.9 48 -5.8 21.6
03:35 1015 29.97 844 24.92 4.7 40.5 46 -5.9 21.4
03:40 1015 29.97 844 24.92 4.9 40.8 47 -5.5 22.2
03:45 1015 29.97 844 24.92 4.7 40.4 48 -5.5 22.1
03:50 1015 29.97 844 24.92 4.6 40.3 48 -5.5 22.2
03:55 1015 29.97 844 24.92 4.5 40.1 49 -5.4 22.2
04:00 1015 29.97 844 24.92 4.5 40.1 49 -5.4 22.3
04:05 1015 29.97 844 24.92 4.4 40 49 -5.3 22.5
04:10 1015 29.97 844 24.92 4.3 39.7 50 -5.2 22.6
04:15 1015 29.97 844 24.92 4.1 39.3 51 -5.2 22.6
04:20 1015 29.97 844 24.92 3.8 38.9 52 -5.2 22.7
04:25 1015 29.97 844 24.92 3.8 38.8 52 -5.2 22.6
04:30 1015 29.97 844 24.92 3.9 39 52 -5.2 22.7
04:35 1015 29.97 844 24.92 3.8 38.8 54 -4.7 23.5
04:40 1015 29.97 844 24.92 2.6 36.6 58 -4.8 23.4
04:45 1015 29.97 844 24.92 2.4 36.4 57 -5.3 22.5
04:50 1015 29.97 844 24.92 2.6 36.7 56 -5.3 22.4
04:55 1015 29.97 844 24.92 2.9 37.3 54 -5.5 22.1
05:00 1014 29.94 844 24.92 3.1 37.6 55 -5.2 22.7
05:05 1014 29.94 843 24.89 2.7 36.9 54 -5.7 21.8
05:10 1014 29.94 843 24.89 3.2 37.7 53 -5.5 22.1
05:15 1014 29.94 843 24.89 3.3 37.9 53 -5.4 22.3
05:20 1014 29.94 843 24.89 3.2 37.7 54 -5.3 22.4
05:25 1014 29.94 843 24.89 3.1 37.6 54 -5.4 22.3
05:30 1014 29.94 843 24.89 3.1 37.5 54 -5.4 22.3
05:35 1013 29.91 843 24.89 3.4 38 53 -5.2 22.6
05:40 1013 29.91 843 24.89 3.3 37.9 53 -5.4 22.2
05:45 1013 29.91 843 24.89 3.4 38.1 54 -5.2 22.7
05:50 1013 29.91 843 24.89 3.4 38.2 54 -4.9 23.2
05:55 1013 29.91 842 24.86 2.8 37.1 59 -4.4 24
06:00 1013 29.91 842 24.86 1.9 35.5 63 -4.3 24.2
06:05 1013 29.91 842 24.86 1.8 35.2 60 -5.1 22.7
06:10 1013 29.91 842 24.86 2.3 36.1 58 -5.1 22.9
06:15 1013 29.91 842 24.86 2.6 36.7 57 -5 23.1
06:20 1013 29.91 842 24.86 2.4 36.3 57 -5.4 22.4
06:25 1012 29.88 842 24.86 2.8 37 53 -5.7 21.7
06:30 1013 29.91 842 24.86 2.3 36.1 60 -4.7 23.6
06:35 1013 29.91 842 24.86 1.9 35.5 60 -4.9 23.1
06:40 1013 29.91 842 24.86 2.1 35.7 61 -4.7 23.6
06:45 1013 29.91 842 24.86 2.4 36.3 57 -5.3 22.5
06:50 1013 29.91 842 24.86 2.9 37.2 56 -5 23
06:55 1013 29.91 842 24.86 2.9 37.3 57 -4.7 23.5
07:00 1013 29.91 842 24.86 2.6 36.7 58 -4.8 23.4
07:05 1013 29.91 842 24.86 2.5 36.5 58 -5 23
07:10 1013 29.91 842 24.86 3 37.3 57 -4.7 23.5
07:15 1013 29.91 842 24.86 2.9 37.1 58 -4.7 23.5
07:20 1012 29.88 842 24.86 2.8 37 57 -4.9 23.1
07:25 1012 29.88 842 24.86 3 37.4 56 -5 23
07:30 1012 29.88 842 24.86 3.3 37.9 54 -5.1 22.9
07:35 1012 29.88 842 24.86 3.5 38.4 54 -5 23.1
07:40 1012 29.88 842 24.86 3.4 38.1 55 -4.8 23.4
07:45 1012 29.88 841 24.83 3.2 37.8 56 -4.8 23.4
07:50 1012 29.88 841 24.83 3.3 37.9 55 -4.9 23.1
07:55 1012 29.88 841 24.83 3.3 38 55 -4.9 23.2
08:00 1012 29.88 841 24.83 3.2 37.7 56 -4.7 23.5
08:05 1012 29.88 841 24.83 3.1 37.6 56 -4.9 23.2
08:10 1011 29.85 841 24.83 3.1 37.5 56 -4.8 23.4
08:15 1011 29.85 840 24.81 3.3 37.9 52 -5.6 22
08:20 1011 29.85 840 24.81 3.8 38.9 53 -5 23.1
08:25 1011 29.85 840 24.81 3.7 38.7 54 -4.9 23.3
08:30 1011 29.85 840 24.81 3.6 38.5 54 -4.9 23.1
08:35 1011 29.85 841 24.83 3.7 38.6 52 -5.3 22.5
08:40 1012 29.88 841 24.83 4.3 39.7 49 -5.5 22.2
08:45 1012 29.88 841 24.83 4.8 40.6 49 -5 22.9
08:50 1012 29.88 841 24.83 5.1 41.1 47 -5.3 22.5
08:55 1012 29.88 841 24.83 5.2 41.3 46 -5.6 21.9
09:00 1012 29.88 841 24.83 5.3 41.6 49 -4.7 23.6
09:05 1012 29.88 841 24.83 5.2 41.3 50 -4.5 23.9
09:10 1012 29.88 841 24.83 5.2 41.3 49 -4.7 23.5
09:15 1012 29.88 841 24.83 5.2 41.3 53 -3.6 25.6
09:20 1012 29.88 841 24.83 4.2 39.6 56 -3.7 25.3
09:25 1011 29.85 840 24.81 4.1 39.3 54 -4.3 24.2
09:30 1011 29.85 840 24.81 4.4 39.9 52 -4.6 23.7
09:35 1011 29.85 840 24.81 5.1 41.2 50 -4.6 23.7
09:40 1011 29.85 841 24.83 5.4 41.8 49 -4.3 24.2
09:45 1012 29.88 841 24.83 5.4 41.7 51 -3.8 25.1
09:50 1012 29.88 841 24.83 4.8 40.7 53 -4 24.8
09:55 1011 29.85 841 24.83 5.3 41.6 50 -4.1 24.5
10:00 1011 29.85 840 24.81 5.3 41.5 51 -3.9 24.9
10:05 1011 29.85 840 24.81 5.5 42 51 -3.9 25.1
10:10 1011 29.85 840 24.81 5.8 42.5 49 -4 24.8
10:15 1011 29.85 840 24.81 5.9 42.6 49 -4 24.9
10:20 1011 29.85 841 24.83 6.3 43.3 48 -4 24.8
10:25 1011 29.85 841 24.83 6.7 44.1 47 -3.8 25.1
10:30 1011 29.85 841 24.83 7.2 45 48 -3.1 26.4
10:35 1011 29.85 840 24.81 7.2 45 48 -3.1 26.5
10:40 1011 29.85 840 24.81 7.2 44.9 48 -3.1 26.5
10:45 1011 29.85 840 24.81 7.2 44.9 49 -2.9 26.7
10:50 1011 29.85 840 24.81 7.2 44.9 50 -2.7 27.2
10:55 1011 29.85 840 24.81 7.1 44.7 51 -2.3 27.9
11:00 1011 29.85 840 24.81 7.1 44.7 51 -2.3 27.9
11:05 1010 29.83 840 24.81 7 44.6 51 -2.4 27.7
11:10 1010 29.83 839 24.78 6.7 44.1 52 -2.4 27.7
11:15 1010 29.83 839 24.78 6.6 43.8 52 -2.5 27.5
11:20 1010 29.83 839 24.78 6.5 43.8 52 -2.6 27.2
11:25 1010 29.83 839 24.78 6.5 43.7 52 -2.8 27
11:30 1010 29.83 839 24.78 6.7 44 50 -3 26.6
11:35 1010 29.83 839 24.78 6.9 44.4 50 -2.8 26.9
11:40 1010 29.83 839 24.78 7 44.6 50 -2.6 27.3
11:45 1010 29.83 839 24.78 7.1 44.8 51 -2.3 27.9
11:50 1010 29.83 839 24.78 7.1 44.7 53 -1.9 28.6
11:55 1010 29.83 839 24.78 7.3 45.1 53 -1.8 28.8
12:00 1010 29.83 839 24.78 7.4 45.3 53 -1.5 29.4
12:05 1010 29.83 839 24.78 7.5 45.4 54 -1.3 29.7
12:10 1010 29.83 839 24.78 7.4 45.4 54 -1.1 30
12:15 1009 29.8 839 24.78 7.6 45.7 53 -1.3 29.7
12:20 1009 29.8 839 24.78 7.9 46.3 51 -1.5 29.3
12:25 1009 29.8 839 24.78 8.1 46.6 51 -1.3 29.6
12:30 1009 29.8 838 24.75 8.1 46.6 53 -0.8 30.6
12:35 1009 29.8 839 24.78 7.9 46.2 55 -0.6 31
12:40 1009 29.8 839 24.78 7.6 45.7 58 -0.1 31.8
12:45 1009 29.8 839 24.78 7.4 45.3 59 -0 32
12:50 1009 29.8 838 24.75 7.2 44.9 59 -0.3 31.5
12:55 1009 29.8 839 24.78 7.4 45.3 59 -0.2 31.7
13:00 1009 29.8 839 24.78 7.4 45.2 59 -0.2 31.6
13:05 1009 29.8 839 24.78 7.3 45.2 59 -0.1 31.8
13:10 1009 29.8 839 24.78 7.3 45.1 60 0.1 32.2
13:15 1009 29.8 838 24.75 7.1 44.8 60 -0 32
13:20 1008 29.77 838 24.75 7.1 44.7 61 -0 32
13:25 1008 29.77 837 24.72 7.2 44.9 59 -0.4 31.3
13:30 1008 29.77 837 24.72 7.2 44.9 59 -0.3 31.4
13:35 1008 29.77 837 24.72 7 44.6 59 -0.4 31.3
13:40 1008 29.77 837 24.72 7.1 44.8 57 -0.7 30.7
13:45 1008 29.77 837 24.72 7.3 45.1 56 -0.8 30.5
13:50 1008 29.77 837 24.72 7.4 45.3 53 -1.5 29.3
13:55 1008 29.77 837 24.72 7.6 45.7 52 -1.5 29.2
14:00 1008 29.77 837 24.72 7.7 45.8 52 -1.6 29.1
14:05 1008 29.77 837 24.72 7.7 45.9 51 -1.8 28.7
14:10 1008 29.77 837 24.72 8 46.5 50 -1.6 29
14:15 1008 29.77 837 24.72 8.3 47 50 -1.4 29.5
14:20 1008 29.77 837 24.72 8.6 47.4 49 -1.4 29.4
14:25 1008 29.77 837 24.72 8.6 47.4 49 -1.4 29.5
14:30 1008 29.77 837 24.72 8.6 47.6 46 -2.2 28
14:35 1008 29.77 837 24.72 8.6 47.4 45 -2.6 27.3
14:40 1008 29.77 837 24.72 8.7 47.6 45 -2.6 27.3
14:45 1008 29.77 837 24.72 8.8 47.8 42 -3.3 26.1
14:50 1008 29.77 837 24.72 9 48.1 43 -2.9 26.7
14:55 1008 29.77 838 24.75 8.6 47.4 45 -2.8 26.9
15:00 1009 29.8 838 24.75 8.3 46.9 45 -2.9 26.8
15:05 1009 29.8 838 24.75 8.3 46.9 45 -2.8 26.9
15:10 1009 29.8 838 24.75 8.3 46.9 44 -3.2 26.3
15:15 1009 29.8 838 24.75 8.3 47 46 -2.5 27.5
15:20 1009 29.8 838 24.75 8.1 46.6 49 -2 28.3
15:25 1009 29.8 838 24.75 7.9 46.2 49 -2.2 28
15:30 1009 29.8 838 24.75 7.7 45.9 50 -2.1 28.2
15:35 1009 29.8 838 24.75 7.8 46.1 47 -2.6 27.2
15:40 1009 29.8 838 24.75 8 46.5 48 -2.3 27.8
15:45 1009 29.8 838 24.75 7.8 46.1 49 -2.3 27.9
15:50 1009 29.8 839 24.78 7.9 46.2 49 -2.2 28.1
15:55 1010 29.83 839 24.78 7.8 46.1 49 -2.2 28
16:00 1010 29.83 839 24.78 7.7 45.9 45 -3.4 25.8
16:05 1010 29.83 839 24.78 7.8 46.1 41 -4.6 23.7
16:10 1010 29.83 839 24.78 7.8 46.1 39 -5.1 22.8
16:15 1010 29.83 839 24.78 7.8 46 39 -5.2 22.6
16:20 1010 29.83 839 24.78 7.6 45.6 41 -4.7 23.5
16:25 1010 29.83 839 24.78 7.4 45.2 43 -4.5 23.8
16:30 1010 29.83 839 24.78 7 44.6 44 -4.3 24.3
16:35 1010 29.83 839 24.78 6.8 44.3 46 -4 24.8
16:40 1010 29.83 840 24.81 6.6 43.9 47 -3.8 25.1
16:45 1011 29.85 840 24.81 6.6 43.8 48 -3.8 25.2
16:50 1011 29.85 840 24.81 6.5 43.8 48 -3.6 25.6
16:55 1011 29.85 840 24.81 6.5 43.7 49 -3.3 26
17:00 1011 29.85 840 24.81 6.4 43.5 50 -3.2 26.3
17:05 1011 29.85 840 24.81 6.4 43.5 51 -3.1 26.4
17:10 1011 29.85 840 24.81 6.2 43.2 52 -2.8 26.9
17:15 1011 29.85 840 24.81 6 42.8 52 -3.2 26.3
17:20 1011 29.85 840 24.81 6 42.8 53 -2.8 27
17:25 1011 29.85 840 24.81 5.8 42.5 55 -2.6 27.3
17:30 1011 29.85 840 24.81 5.7 42.3 54 -2.8 27
17:35 1011 29.85 840 24.81 5.8 42.4 50 -3.8 25.1
17:40 1011 29.85 840 24.81 6.2 43.2 49 -3.7 25.3
17:45 1011 29.85 841 24.83 6.2 43.1 48 -4 24.8
17:50 1011 29.85 841 24.83 6.3 43.3 45 -4.8 23.4
17:55 1011 29.85 841 24.83 6.3 43.4 47 -4.1 24.6
18:00 1011 29.85 841 24.83 5.9 42.6 54 -2.6 27.3
18:05 1011 29.85 841 24.83 5.3 41.5 61 -1.6 29.1
18:10 1011 29.85 841 24.83 4.5 40.1 66 -1.3 29.6
18:15 1011 29.85 841 24.83 4.2 39.6 68 -1.1 30
18:20 1011 29.85 841 24.83 3.9 39.1 70 -1 30.1
18:25 1012 29.88 841 24.83 3.8 38.8 71 -1.1 30.1
18:30 1011 29.85 841 24.83 3.9 39 69 -1.3 29.6
18:35 1011 29.85 841 24.83 4 39.1 68 -1.3 29.6
18:40 1011 29.85 841 24.83 4.1 39.4 67 -1.5 29.4
18:45 1011 29.85 841 24.83 4.2 39.5 66 -1.6 29.1
18:50 1011 29.85 841 24.83 4.3 39.7 63 -2.1 28.3
18:55 1011 29.85 841 24.83 4.4 40 62 -2.1 28.1
19:00 1011 29.85 840 24.81 4.6 40.2 61 -2.2 28
19:05 1011 29.85 840 24.81 4.6 40.3 62 -2.1 28.2
19:10 1011 29.85 840 24.81 4.7 40.4 59 -2.6 27.3
19:15 1011 29.85 840 24.81 4.8 40.7 55 -3.5 25.7
19:20 1011 29.85 840 24.81 5 41 51 -4.4 24.1
19:25 1012 29.88 841 24.83 5.2 41.3 48 -4.9 23.3
19:30 1012 29.88 841 24.83 5.1 41.2 50 -4.5 23.8
19:35 1012 29.88 841 24.83 5.1 41.1 52 -3.9 24.9
19:40 1012 29.88 841 24.83 5 41 53 -3.7 25.3
19:45 1012 29.88 841 24.83 5 41 53 -3.8 25.2
19:50 1012 29.88 841 24.83 4.9 40.8 51 -4.3 24.3
19:55 1012 29.88 841 24.83 5.1 41.1 51 -4.2 24.4
20:00 1012 29.88 841 24.83 5 41 49 -4.9 23.1
20:05 1012 29.88 841 24.83 5.2 41.3 46 -5.5 22.2
20:10 1012 29.88 841 24.83 5.3 41.6 43 -6.2 20.8
20:15 1012 29.88 841 24.83 5.6 42 41 -6.6 20.2
20:20 1012 29.88 841 24.83 5.6 42.1 42 -6.4 20.5
20:25 1012 29.88 841 24.83 5.6 42.1 41 -6.7 19.9
20:30 1012 29.88 841 24.83 5.5 41.9 41 -6.6 20.1
20:35 1012 29.88 841 24.83 5.4 41.6 43 -6.2 20.9
20:40 1012 29.88 842 24.86 5.2 41.3 44 -6.2 20.8
20:45 1012 29.88 842 24.86 5 41 42 -7 19.5
20:50 1012 29.88 841 24.83 5.1 41.2 41 -7.2 19.1
20:55 1012 29.88 841 24.83 5.3 41.5 38 -7.9 17.8
21:00 1012 29.88 841 24.83 5.4 41.8 35 -8.9 16
21:05 1012 29.88 841 24.83 5.5 41.9 36 -8.3 17
21:10 1012 29.88 841 24.83 5.3 41.6 38 -8 17.7
21:15 1012 29.88 842 24.86 5.3 41.6 36 -8.5 16.7
21:20 1012 29.88 842 24.86 5.2 41.4 37 -8.3 17.1
21:25 1012 29.88 842 24.86 5.3 41.6 37 -8.1 17.3
21:30 1012 29.88 842 24.86 5.2 41.4 39 -7.6 18.3
21:35 1012 29.88 841 24.83 5 41 42 -7 19.4
21:40 1012 29.88 841 24.83 4.7 40.5 44 -6.6 20.1
21:45 1012 29.88 841 24.83 4.5 40.1 45 -6.3 20.7
21:50 1012 29.88 841 24.83 4.4 40 47 -5.8 21.5
21:55 1012 29.88 841 24.83 4.4 39.9 47 -6 21.3
22:00 1012 29.88 841 24.83 4.4 39.8 47 -6 21.2
22:05 1012 29.88 841 24.83 4.3 39.8 46 -6.2 20.9
22:10 1012 29.88 841 24.83 4.5 40 46 -6.3 20.7
22:15 1012 29.88 841 24.83 4.5 40.1 45 -6.5 20.3
22:20 1012 29.88 841 24.83 4.7 40.4 44 -6.5 20.3
22:25 1012 29.88 841 24.83 4.7 40.4 45 -6.3 20.6
22:30 1012 29.88 841 24.83 4.6 40.3 45 -6.4 20.5
22:35 1012 29.88 841 24.83 4.5 40.2 46 -6 21.2
22:40 1012 29.88 841 24.83 4.5 40.1 45 -6.3 20.6
22:45 1012 29.88 841 24.83 4.5 40.1 48 -5.6 21.8
22:50 1012 29.88 841 24.83 4.4 40 48 -5.7 21.7
22:55 1013 29.91 842 24.86 4.5 40 47 -5.9 21.3
23:00 1013 29.91 842 24.86 4.6 40.3 48 -5.4 22.3
23:05 1013 29.91 842 24.86 4.4 40 50 -5.1 22.8
23:10 1013 29.91 842 24.86 4.2 39.6 52 -4.8 23.4
23:15 1013 29.91 842 24.86 4.1 39.4 52 -4.8 23.3
23:20 1013 29.91 842 24.86 4.1 39.4 53 -4.5 23.8
23:25 1013 29.91 842 24.86 4.1 39.4 52 -4.8 23.4
23:30 1012 29.88 842 24.86 4.1 39.3 53 -4.8 23.4
23:35 1012 29.88 842 24.86 3.9 39.1 53 -4.7 23.5
23:40 1012 29.88 841 24.83 3.8 38.9 54 -4.6 23.6
23:45 1012 29.88 841 24.83 3.6 38.5 55 -4.6 23.7
23:50 1012 29.88 842 24.86 3.7 38.6 55 -4.5 23.9
23:55 1012 29.88 842 24.86 3.7 38.7 55 -4.4 24.1
24:00 1012 29.88 842 24.86 3.6 38.5 56 -4.2 24.4